Time;durP1;ratioP1;P1;durP2;ratioP2;P2;SDS_P1;SDS_P2;PMS_P1;PMS_P2;Temp;Humidity;BMP_temperature;BMP_pressure;BME280_temperature;BME280_humidity;BME280_pressure;Samples;Min_cycle;Max_cycle;Signal;HPM_P1;HPM_P2
2022/06/25 00:01:45;;;;;;;11.80;3.40;;;;;16.20;97191.00;;;;110509;1253;41271;-65
2022/06/25 00:07:04;;;;;;;11.40;3.70;;;;;16.20;97195.20;;;;110472;1253;41542;-67
2022/06/25 00:09:34;;;;;;;11.90;3.30;;;;;16.20;97193.40;;;;110444;1253;41155;-66
2022/06/25 00:14:53;;;;;;;10.30;3.20;;;;;16.20;97197.80;;;;110441;1254;41133;-65
2022/06/25 00:17:22;;;;;;;11.20;3.80;;;;;16.20;97204.20;;;;110252;1255;41463;-65
2022/06/25 00:19:53;;;;;;;11.40;4.70;;;;;16.20;97207.60;;;;110407;1253;41145;-65
2022/06/25 00:22:23;;;;;;;12.10;4.30;;;;;16.20;97214.00;;;;110243;1256;41915;-65
2022/06/25 00:24:53;;;;;;;11.40;4.20;;;;;16.10;97217.40;;;;110467;1254;41250;-65
2022/06/25 00:27:23;;;;;;;10.50;4.00;;;;;16.10;97219.00;;;;110339;1255;41773;-65
2022/06/25 00:29:54;;;;;;;;;;;;;16.00;97214.20;;;;110300;1255;41164;-65
2022/06/25 00:32:23;;;;;;;9.60;3.40;;;;;15.90;97214.80;;;;110220;1256;41184;-65
2022/06/25 00:34:53;;;;;;;9.90;3.70;;;;;15.90;97215.40;;;;110364;1255;41619;-66
2022/06/25 00:37:23;;;;;;;8.50;3.50;;;;;15.84;97214.20;;;;110283;1253;41267;-66
2022/06/25 00:39:53;;;;;;;7.70;3.00;;;;;15.88;97215.80;;;;110393;1253;41253;-66
2022/06/25 00:42:23;;;;;;;10.50;3.40;;;;;15.90;97215.20;;;;110301;1256;41258;-65
2022/06/25 00:44:55;;;;;;;7.40;3.00;;;;;15.80;97218.60;;;;110663;1253;41650;-65
2022/06/25 00:47:26;;;;;;;8.90;3.70;;;;;15.80;97219.60;;;;110446;1254;41722;-65
2022/06/25 00:49:57;;;;;;;9.90;3.50;;;;;15.70;97220.00;;;;110497;1255;41146;-65
2022/06/25 00:52:30;;;;;;;8.30;3.10;;;;;15.66;97218.40;;;;110484;1256;41260;-65
2022/06/25 00:55:10;;;;;;;7.70;2.90;;;;;15.60;97222.20;;;;110509;1254;41300;-65
2022/06/25 00:57:43;;;;;;;7.60;3.00;;;;;15.60;97225.40;;;;110334;1255;41162;-66
2022/06/25 01:00:17;;;;;;;9.60;2.90;;;;;15.60;97226.80;;;;110526;1253;41944;-66
2022/06/25 01:02:48;;;;;;;8.10;3.10;;;;;15.60;97228.80;;;;110517;1255;41267;-66
2022/06/25 01:05:20;;;;;;;9.70;4.10;;;;;15.60;97232.00;;;;110520;1254;41894;-66
2022/06/25 01:07:51;;;;;;;10.40;4.00;;;;;15.60;97230.80;;;;110473;1255;41168;-66
2022/06/25 01:10:22;;;;;;;8.70;3.40;;;;;15.50;97230.80;;;;110527;1253;41255;-65
2022/06/25 01:12:53;;;;;;;9.30;3.50;;;;;15.40;97234.00;;;;110418;1256;42715;-65
2022/06/25 01:15:25;;;;;;;8.90;3.40;;;;;15.30;97231.80;;;;110402;1255;41562;-64
2022/06/25 01:17:56;;;;;;;8.50;3.60;;;;;15.18;97238.80;;;;110528;1256;42298;-65
2022/06/25 01:20:27;;;;;;;10.10;3.60;;;;;15.20;97232.80;;;;110487;1254;41906;-66
2022/06/25 01:22:58;;;;;;;8.40;3.10;;;;;15.14;97231.20;;;;110533;1253;41618;-65
2022/06/25 01:25:36;;;;;;;9.60;3.20;;;;;15.16;97234.00;;;;110520;1256;41589;-65
2022/06/25 01:28:08;;;;;;;8.20;3.00;;;;;15.20;97237.60;;;;110505;1255;41368;-65
2022/06/25 01:30:39;;;;;;;9.10;3.30;;;;;15.20;97240.00;;;;110358;1256;41167;-66
2022/06/25 01:33:10;;;;;;;7.80;2.90;;;;;15.20;97245.00;;;;110545;1255;41605;-66
2022/06/25 01:35:44;;;;;;;8.80;2.90;;;;;15.20;97241.20;;;;110449;1254;42125;-66
2022/06/25 01:38:14;;;;;;;7.60;2.90;;;;;15.14;97246.60;;;;110564;1253;41162;-66
2022/06/25 01:40:44;;;;;;;7.70;2.90;;;;;15.10;97250.40;;;;110589;1254;42009;-66
2022/06/25 01:43:15;;;;;;;6.00;2.40;;;;;15.10;97250.80;;;;110440;1255;41225;-66
2022/06/25 01:45:46;;;;;;;6.70;2.60;;;;;15.10;97252.40;;;;110248;1254;41274;-66
2022/06/25 01:48:17;;;;;;;6.30;2.60;;;;;15.10;97252.80;;;;110554;1253;41260;-66
2022/06/25 01:50:48;;;;;;;8.00;2.80;;;;;15.10;97254.20;;;;110533;1253;41159;-66
2022/06/25 01:53:19;;;;;;;6.60;2.80;;;;;15.08;97255.60;;;;110433;1255;41373;-66
2022/06/25 01:55:50;;;;;;;7.00;2.40;;;;;15.06;97256.00;;;;110390;1255;41161;-65
2022/06/25 01:58:22;;;;;;;5.60;2.30;;;;;15.00;97256.00;;;;110528;1253;41145;-65
2022/06/25 02:00:53;;;;;;;6.50;2.80;;;;;15.00;97261.40;;;;110466;1253;41509;-66
2022/06/25 02:03:26;;;;;;;6.20;2.60;;;;;15.02;97263.00;;;;110474;1253;41150;-66
2022/06/25 02:05:57;;;;;;;6.60;3.00;;;;;15.00;97265.60;;;;110491;1254;41254;-65
2022/06/25 02:08:27;;;;;;;;;;;;;15.00;97264.40;;;;110361;1256;41650;-65
2022/06/25 02:10:59;;;;;;;5.60;2.40;;;;;15.00;97261.00;;;;110339;1255;41165;-66
2022/06/25 02:13:31;;;;;;;6.40;2.40;;;;;15.00;97254.20;;;;110541;1253;41362;-66
2022/06/25 02:16:01;;;;;;;;;;;;;15.00;97253.60;;;;110422;1256;41153;-65
2022/06/25 02:18:36;;;;;;;5.70;2.50;;;;;14.96;97258.00;;;;110513;1253;41303;-65
2022/06/25 02:21:06;;;;;;;6.00;2.70;;;;;14.90;97257.40;;;;110488;1254;42433;-65
2022/06/25 02:23:37;;;;;;;6.30;2.70;;;;;14.90;97257.20;;;;110491;1255;41253;-65
2022/06/25 02:26:07;;;;;;;6.70;3.00;;;;;14.90;97256.40;;;;110396;1254;41840;-65
2022/06/25 02:28:39;;;;;;;11.10;2.70;;;;;14.88;97258.40;;;;110407;1253;41640;-65
2022/06/25 02:31:10;;;;;;;6.40;2.80;;;;;14.80;97262.60;;;;110400;1255;41762;-65
2022/06/25 02:33:41;;;;;;;5.30;2.30;;;;;14.80;97264.40;;;;110379;1256;41610;-65
2022/06/25 02:36:12;;;;;;;5.10;2.40;;;;;14.80;97266.60;;;;110577;1255;41145;-64
2022/06/25 02:38:43;;;;;;;4.90;2.20;;;;;14.80;97260.80;;;;110358;1256;41170;-64
2022/06/25 02:41:13;;;;;;;;;;;;;14.80;97268.80;;;;110475;1254;41221;-64
2022/06/25 02:43:45;;;;;;;7.20;2.70;;;;;14.74;97265.40;;;;110527;1253;41494;-64
2022/06/25 02:46:23;;;;;;;5.50;2.30;;;;;14.80;97266.00;;;;110273;1255;41393;-66
2022/06/25 02:48:56;;;;;;;6.30;2.60;;;;;14.80;97264.20;;;;110382;1253;41424;-65
2022/06/25 02:51:27;;;;;;;6.20;2.20;;;;;14.80;97263.40;;;;110541;1254;41316;-64
2022/06/25 02:53:58;;;;;;;4.30;2.00;;;;;14.80;97267.40;;;;110255;1256;41631;-65
2022/06/25 02:59:16;;;;;;;4.80;2.10;;;;;14.80;97266.00;;;;110395;1255;41163;-65
2022/06/25 03:01:54;;;;;;;5.10;2.20;;;;;14.80;97268.20;;;;110495;1254;41194;-65
2022/06/25 03:04:29;;;;;;;4.30;2.00;;;;;14.80;97267.40;;;;110428;1255;41308;-65
2022/06/25 03:07:00;;;;;;;4.20;2.10;;;;;14.86;97267.00;;;;110227;1253;42009;-65
2022/06/25 03:09:30;;;;;;;4.80;2.00;;;;;14.88;97267.80;;;;110224;1256;41275;-65
2022/06/25 03:12:02;;;;;;;5.90;2.30;;;;;14.90;97269.60;;;;110333;1255;41838;-65
2022/06/25 03:14:33;;;;;;;7.80;2.90;;;;;14.90;97267.00;;;;110285;1256;42373;-65
2022/06/25 03:17:04;;;;;;;7.30;2.90;;;;;14.74;97268.40;;;;110265;1256;41169;-65
2022/06/25 03:19:54;;;;;;;6.10;2.80;;;;;14.70;97265.80;;;;110390;1255;41516;-65
2022/06/25 03:22:30;;;;;;;6.90;2.80;;;;;14.50;97269.60;;;;110372;1255;41842;-66
2022/06/25 03:25:00;;;;;;;6.60;2.60;;;;;14.50;97274.80;;;;110408;1255;41664;-66
2022/06/25 03:27:30;;;;;;;6.00;2.80;;;;;14.60;97273.40;;;;110374;1256;42401;-65
2022/06/25 03:30:09;;;;;;;5.80;2.60;;;;;14.70;97278.40;;;;110551;1254;41274;-65
2022/06/25 03:32:40;;;;;;;5.90;2.60;;;;;14.80;97276.60;;;;110463;1254;41272;-66
2022/06/25 03:35:30;;;;;;;6.40;2.50;;;;;14.90;97274.60;;;;110366;1256;41140;-65
2022/06/25 03:38:12;;;;;;;6.10;2.40;;;;;14.96;97279.40;;;;110672;1253;41279;-65
2022/06/25 03:40:42;;;;;;;4.10;2.00;;;;;15.00;97280.60;;;;110545;1253;41709;-66
2022/06/25 03:43:14;;;;;;;5.20;2.20;;;;;15.10;97276.00;;;;110498;1253;41547;-65
2022/06/25 03:45:46;;;;;;;4.00;1.90;;;;;15.20;97276.80;;;;110456;1253;41278;-65
2022/06/25 03:48:16;;;;;;;4.30;2.10;;;;;15.30;97273.80;;;;110478;1254;41394;-65
2022/06/25 03:51:05;;;;;;;5.70;2.40;;;;;15.40;97268.40;;;;110516;1254;41158;-65
2022/06/25 03:53:35;;;;;;;7.60;3.00;;;;;15.50;97268.00;;;;110657;1252;41174;-65
2022/06/25 03:56:06;;;;;;;8.90;3.10;;;;;15.60;97269.80;;;;110550;1253;41257;-66
2022/06/25 03:58:40;;;;;;;7.30;2.80;;;;;15.72;97274.00;;;;110572;1253;41258;-66
2022/06/25 04:01:12;;;;;;;9.10;3.70;;;;;15.80;97282.80;;;;110340;1256;41649;-65
2022/06/25 04:03:43;;;;;;;7.80;2.80;;;;;15.90;97282.80;;;;110352;1256;41788;-65
2022/06/25 04:06:16;;;;;;;8.30;2.90;;;;;15.94;97278.80;;;;110371;1254;41619;-65
2022/06/25 04:08:48;;;;;;;5.80;2.50;;;;;16.00;97275.00;;;;110423;1255;41167;-67
2022/06/25 04:11:19;;;;;;;4.70;2.30;;;;;16.10;97278.60;;;;110376;1253;41262;-67
2022/06/25 04:13:54;;;;;;;6.00;2.60;;;;;16.20;97273.40;;;;110471;1254;41165;-66
2022/06/25 04:16:24;;;;;;;6.20;2.40;;;;;16.34;97271.80;;;;110401;1254;41892;-66
2022/06/25 04:18:55;;;;;;;6.80;2.90;;;;;16.50;97268.00;;;;110445;1255;41216;-66
2022/06/25 04:21:27;;;;;;;7.70;3.40;;;;;16.62;97267.40;;;;110532;1256;41823;-65
2022/06/25 04:23:57;;;;;;;9.90;3.00;;;;;16.80;97269.80;;;;110503;1254;41596;-65
2022/06/25 04:26:29;;;;;;;7.20;3.10;;;;;17.78;97247.80;;;;110487;1254;41261;-65
2022/06/25 04:29:05;;;;;;;7.10;2.80;;;;;19.22;97242.20;;;;110521;1254;41628;-65
2022/06/25 04:31:42;;;;;;;7.20;3.10;;;;;20.54;97244.60;;;;110472;1255;41260;-65
2022/06/25 04:34:15;;;;;;;10.20;3.20;;;;;21.78;97240.20;;;;110508;1254;41271;-65
2022/06/25 04:36:46;;;;;;;9.20;3.10;;;;;22.66;97243.20;;;;110509;1254;41160;-65
2022/06/25 04:39:21;;;;;;;7.00;2.90;;;;;23.30;97236.00;;;;110580;1254;41132;-65
2022/06/25 04:41:51;;;;;;;6.80;2.60;;;;;24.08;97234.20;;;;110543;1254;41946;-65
2022/06/25 04:44:22;;;;;;;6.10;2.60;;;;;24.90;97228.00;;;;110545;1253;41586;-66
2022/06/25 04:46:52;;;;;;;6.10;2.60;;;;;25.70;97226.80;;;;110429;1253;41608;-66
2022/06/25 04:49:28;;;;;;;9.30;3.00;;;;;26.32;97221.40;;;;110569;1253;41337;-66
2022/06/25 04:51:58;;;;;;;6.20;2.70;;;;;26.90;97225.60;;;;110674;1253;41172;-65
2022/06/25 04:54:28;;;;;;;7.50;2.60;;;;;27.50;97229.00;;;;110709;1253;41134;-65
2022/06/25 04:57:11;;;;;;;6.20;2.60;;;;;28.10;97228.80;;;;110673;1253;41946;-65
2022/06/25 05:00:01;;;;;;;9.70;2.30;;;;;28.68;97228.60;;;;110513;1253;41142;-66
2022/06/25 05:02:37;;;;;;;5.20;2.40;;;;;29.18;97226.20;;;;110471;1254;41682;-66
2022/06/25 05:05:13;;;;;;;8.10;2.80;;;;;29.60;97222.40;;;;110609;1253;41269;-65
2022/06/25 05:07:43;;;;;;;6.50;2.70;;;;;29.96;97220.00;;;;110519;1254;41486;-65
2022/06/25 05:10:13;;;;;;;6.40;2.20;;;;;29.92;97217.40;;;;110491;1254;41302;-65
2022/06/25 05:15:33;;;;;;;7.70;2.40;;;;;28.74;97225.80;;;;110538;1253;42390;-65
2022/06/25 05:18:03;;;;;;;6.70;2.60;;;;;28.70;97222.80;;;;110651;1253;41727;-66
2022/06/25 05:20:37;;;;;;;5.40;2.30;;;;;28.84;97228.20;;;;110529;1254;41807;-65
2022/06/25 05:23:07;;;;;;;4.70;2.10;;;;;28.80;97229.00;;;;110551;1253;41893;-65
2022/06/25 05:25:37;;;;;;;5.80;2.40;;;;;29.20;97232.20;;;;110514;1253;41149;-66
2022/06/25 05:28:07;;;;;;;5.60;2.20;;;;;29.50;97232.20;;;;110544;1253;41140;-65
2022/06/25 05:30:36;;;;;;;3.60;1.90;;;;;28.62;97260.20;;;;110507;1254;42543;-66
2022/06/25 05:33:06;;;;;;;4.80;1.90;;;;;27.60;97268.20;;;;110536;1252;41485;-65
2022/06/25 05:35:36;;;;;;;6.40;2.70;;;;;26.82;97271.80;;;;110432;1254;41256;-66
2022/06/25 05:38:07;;;;;;;6.10;2.50;;;;;26.12;97277.20;;;;110640;1253;41147;-65
2022/06/25 05:40:36;;;;;;;;;;;;;25.60;97279.20;;;;110575;1254;41217;-65
2022/06/25 05:43:06;;;;;;;4.70;1.90;;;;;25.60;97272.40;;;;110554;1253;41155;-66
2022/06/25 05:45:36;;;;;;;6.00;2.40;;;;;25.56;97280.20;;;;110514;1254;41162;-65
2022/06/25 05:48:06;;;;;;;4.00;1.90;;;;;25.36;97284.00;;;;110508;1253;41181;-65
2022/06/25 05:50:35;;;;;;;4.40;2.00;;;;;25.40;97278.40;;;;110416;1253;41165;-66
2022/06/25 05:53:05;;;;;;;4.10;1.70;;;;;25.30;97281.40;;;;110479;1253;41323;-66
2022/06/25 05:55:34;;;;;;;5.90;2.20;;;;;25.40;97285.00;;;;110560;1254;41722;-67
2022/06/25 05:58:03;;;;;;;4.70;2.00;;;;;25.38;97281.00;;;;110563;1253;41726;-66
2022/06/25 06:00:32;;;;;;;4.30;1.90;;;;;26.12;97260.80;;;;110383;1255;41415;-66
2022/06/25 06:03:01;;;;;;;4.60;2.00;;;;;27.10;97253.20;;;;110596;1253;41262;-66
2022/06/25 06:05:31;;;;;;;4.80;2.00;;;;;28.14;97248.40;;;;110536;1253;41271;-66
2022/06/25 06:08:01;;;;;;;7.80;2.20;;;;;28.70;97241.80;;;;110450;1253;41720;-67
2022/06/25 06:10:30;;;;;;;3.80;2.00;;;;;29.20;97240.80;;;;110537;1253;41158;-66
2022/06/25 06:12:59;;;;;;;5.80;1.80;;;;;29.78;97237.80;;;;110449;1254;41263;-67
2022/06/25 06:15:28;;;;;;;5.40;1.90;;;;;30.70;97238.00;;;;110486;1254;41983;-69
2022/06/25 06:17:57;;;;;;;3.60;1.60;;;;;31.58;97235.00;;;;110627;1253;42620;-67
2022/06/25 06:20:27;;;;;;;4.80;2.00;;;;;32.30;97236.40;;;;110548;1253;42404;-66
2022/06/25 06:22:57;;;;;;;2.60;1.70;;;;;33.00;97235.80;;;;110515;1253;42075;-67
2022/06/25 06:25:26;;;;;;;3.00;1.60;;;;;33.50;97235.00;;;;110698;1253;41313;-66
2022/06/25 06:27:55;;;;;;;4.60;1.70;;;;;34.02;97237.20;;;;110462;1252;41592;-66
2022/06/25 06:30:25;;;;;;;9.20;1.90;;;;;34.60;97233.80;;;;110498;1255;41195;-66
2022/06/25 06:32:55;;;;;;;7.30;1.80;;;;;34.50;97228.20;;;;110600;1253;41157;-66
2022/06/25 06:35:24;;;;;;;;;;;;;34.02;97235.60;;;;110568;1253;42072;-65
2022/06/25 06:37:54;;;;;;;4.60;1.70;;;;;33.46;97236.60;;;;110473;1255;41274;-66
2022/06/25 06:40:23;;;;;;;2.20;1.50;;;;;32.92;97235.60;;;;110499;1253;42225;-65
2022/06/25 06:42:52;;;;;;;3.30;1.70;;;;;32.70;97234.00;;;;110530;1253;41150;-65
2022/06/25 06:45:22;;;;;;;3.40;1.70;;;;;33.40;97237.40;;;;110590;1254;41592;-67
2022/06/25 06:47:52;;;;;;;4.90;1.90;;;;;33.86;97237.80;;;;110518;1253;41642;-67
2022/06/25 06:50:21;;;;;;;6.00;1.80;;;;;34.70;97236.60;;;;110454;1254;41172;-67
2022/06/25 06:52:50;;;;;;;3.00;1.60;;;;;35.42;97232.60;;;;110375;1254;41934;-67
2022/06/25 06:55:20;;;;;;;4.60;1.70;;;;;36.10;97226.00;;;;110552;1253;41297;-66
2022/06/25 06:57:49;;;;;;;4.00;1.70;;;;;35.06;97231.00;;;;110431;1256;41592;-66
2022/06/25 07:00:18;;;;;;;2.90;1.50;;;;;33.88;97234.20;;;;110503;1254;41304;-65
2022/06/25 07:02:48;;;;;;;4.40;1.40;;;;;34.48;97233.80;;;;110468;1255;41259;-66
2022/06/25 07:05:17;;;;;;;3.40;1.60;;;;;35.10;97235.60;;;;110465;1254;41264;-66
2022/06/25 07:07:49;;;;;;;4.90;1.50;;;;;35.12;97234.40;;;;110840;1253;41146;-66
2022/06/25 07:10:20;;;;;;;2.90;1.60;;;;;35.50;97233.40;;;;110592;1254;41248;-66
2022/06/25 07:12:49;;;;;;;3.70;1.40;;;;;35.48;97232.60;;;;110523;1254;41964;-67
2022/06/25 07:15:19;;;;;;;4.20;1.40;;;;;34.14;97231.20;;;;110536;1254;41143;-66
2022/06/25 07:17:48;;;;;;;3.60;1.50;;;;;32.90;97237.80;;;;110562;1254;41158;-67
2022/06/25 07:20:17;;;;;;;3.50;1.60;;;;;31.66;97241.00;;;;110541;1254;41578;-67
2022/06/25 07:22:47;;;;;;;1.90;1.40;;;;;31.70;97244.40;;;;110517;1253;41203;-66
2022/06/25 07:25:17;;;;;;;5.40;1.60;;;;;31.30;97246.20;;;;110355;1255;41932;-66
2022/06/25 07:27:48;;;;;;;3.10;1.50;;;;;31.30;97249.40;;;;110263;1254;418632;-65
2022/06/25 07:34:12;;;;;;;4.30;1.90;;;;;30.80;97247.60;;;;110420;1254;41411;-68
2022/06/25 07:36:41;;;;;;;4.10;1.70;;;;;30.72;97248.40;;;;110437;1254;41579;-67
2022/06/25 07:39:10;;;;;;;3.30;1.70;;;;;30.80;97250.20;;;;110350;1254;41428;-68
2022/06/25 07:41:39;;;;;;;3.90;1.70;;;;;30.70;97246.40;;;;110555;1254;41157;-66
2022/06/25 07:44:08;;;;;;;5.10;1.90;;;;;30.40;97243.40;;;;110482;1254;41255;-67
2022/06/25 07:46:37;;;;;;;2.20;1.50;;;;;29.66;97247.20;;;;110519;1254;41133;-67
2022/06/25 07:49:09;;;;;;;3.80;1.70;;;;;29.28;97248.00;;;;110461;1254;42561;-66
2022/06/25 07:51:57;;;;;;;6.10;1.80;;;;;29.00;97247.00;;;;110621;1254;42371;-66
2022/06/25 07:54:31;;;;;;;4.60;1.90;;;;;28.90;97243.80;;;;110450;1254;41679;-67
2022/06/25 07:57:00;;;;;;;3.90;1.70;;;;;28.80;97246.60;;;;110490;1256;41274;-67
2022/06/25 07:59:29;;;;;;;4.50;1.80;;;;;29.00;97250.80;;;;110483;1254;41163;-67
2022/06/25 08:01:58;;;;;;;4.90;1.70;;;;;29.08;97247.80;;;;110568;1254;41248;-66
2022/06/25 08:04:27;;;;;;;3.40;1.60;;;;;29.30;97243.60;;;;110516;1254;41617;-68
2022/06/25 08:06:56;;;;;;;2.30;1.40;;;;;29.50;97241.40;;;;110419;1256;41683;-69
2022/06/25 08:09:26;;;;;;;3.30;1.60;;;;;29.50;97237.60;;;;110536;1254;41190;-68
2022/06/25 08:11:56;;;;;;;7.20;1.90;;;;;29.70;97236.40;;;;110701;1254;41522;-68
2022/06/25 08:14:25;;;;;;;5.90;1.90;;;;;29.82;97236.20;;;;110590;1255;41161;-68
2022/06/25 08:16:54;;;;;;;4.80;1.80;;;;;29.70;97239.00;;;;110663;1254;41272;-69
2022/06/25 08:19:23;;;;;;;4.60;1.80;;;;;29.30;97248.60;;;;110388;1254;41165;-68
2022/06/25 08:21:52;;;;;;;3.00;1.70;;;;;29.16;97237.80;;;;110373;1252;41800;-70
2022/06/25 08:24:21;;;;;;;3.30;1.80;;;;;29.04;97242.60;;;;110626;1253;41257;-65
2022/06/25 08:26:50;;;;;;;5.60;1.90;;;;;28.84;97243.80;;;;110620;1253;41716;-67
2022/06/25 08:29:20;;;;;;;3.40;1.60;;;;;29.10;97241.40;;;;110764;1253;42396;-68
2022/06/25 08:31:48;;;;;;;4.30;1.70;;;;;29.10;97239.40;;;;110709;1253;41506;-69
2022/06/25 08:34:17;;;;;;;3.70;1.70;;;;;29.20;97233.80;;;;110731;1254;41138;-67
2022/06/25 08:36:46;;;;;;;7.20;2.30;;;;;29.44;97231.40;;;;110775;1253;41193;-68
2022/06/25 08:39:15;;;;;;;4.20;1.80;;;;;29.30;97229.60;;;;110741;1253;41978;-66
2022/06/25 08:41:45;;;;;;;9.10;2.00;;;;;28.90;97227.20;;;;110714;1254;41139;-68
2022/06/25 08:44:14;;;;;;;2.80;1.40;;;;;28.96;97227.80;;;;110635;1254;41165;-67
2022/06/25 08:46:43;;;;;;;3.80;1.80;;;;;28.84;97229.00;;;;110658;1253;41601;-68
2022/06/25 08:49:13;;;;;;;3.30;1.50;;;;;29.12;97228.00;;;;110628;1254;41413;-68
2022/06/25 08:51:44;;;;;;;4.60;1.70;;;;;29.46;97226.80;;;;110643;1253;41145;-67
2022/06/25 08:54:14;;;;;;;4.40;1.90;;;;;29.66;97229.00;;;;110548;1254;41276;-69
2022/06/25 08:56:43;;;;;;;3.10;1.60;;;;;29.82;97225.20;;;;110556;1254;41159;-68
2022/06/25 08:59:12;;;;;;;4.60;1.80;;;;;29.80;97224.20;;;;110669;1253;41171;-68
2022/06/25 09:01:41;;;;;;;8.30;2.30;;;;;29.56;97219.20;;;;110515;1254;41946;-68
2022/06/25 09:04:10;;;;;;;5.10;1.90;;;;;29.12;97224.00;;;;110619;1254;42457;-67
2022/06/25 09:06:39;;;;;;;6.50;2.00;;;;;29.40;97225.80;;;;110642;1254;41185;-67
2022/06/25 09:09:16;;;;;;;5.40;1.70;;;;;29.68;97222.20;;;;110300;1255;41161;-66
2022/06/25 09:11:58;;;;;;;3.90;1.50;;;;;30.10;97223.20;;;;110530;1254;41150;-68
2022/06/25 09:14:29;;;;;;;2.80;1.50;;;;;30.66;97222.00;;;;110725;1254;41596;-67
2022/06/25 09:17:04;;;;;;;2.80;1.60;;;;;31.10;97223.00;;;;110395;1254;41154;-67
2022/06/25 09:19:36;;;;;;;3.30;1.60;;;;;31.30;97230.60;;;;110538;1254;41837;-68
2022/06/25 09:22:07;;;;;;;3.30;1.60;;;;;31.30;97232.60;;;;110600;1253;41175;-69
2022/06/25 09:24:58;;;;;;;3.70;1.50;;;;;31.14;97232.80;;;;110586;1254;42467;-69
2022/06/25 09:27:39;;;;;;;3.00;1.60;;;;;31.76;97225.60;;;;110590;1253;41712;-67
2022/06/25 09:30:13;;;;;;;3.70;1.70;;;;;32.48;97219.40;;;;110561;1254;41370;-67
2022/06/25 09:32:51;;;;;;;3.00;1.60;;;;;33.54;97217.80;;;;110447;1253;42011;-67
2022/06/25 09:35:39;;;;;;;3.90;1.70;;;;;34.66;97210.40;;;;110517;1255;41842;-67
2022/06/25 09:38:09;;;;;;;3.10;1.60;;;;;35.54;97206.20;;;;110556;1254;42966;-67
2022/06/25 09:40:40;;;;;;;3.00;1.50;;;;;36.08;97205.40;;;;110501;1254;41146;-66
2022/06/25 09:43:11;;;;;;;5.00;1.80;;;;;35.14;97206.80;;;;110684;1254;41957;-67
2022/06/25 09:45:43;;;;;;;3.70;1.70;;;;;35.50;97201.00;;;;110699;1253;41162;-67
2022/06/25 09:48:21;;;;;;;2.50;1.60;;;;;35.66;97194.80;;;;110820;1254;41135;-68
2022/06/25 09:51:19;;;;;;;3.80;1.80;;;;;35.90;97193.60;;;;110686;1253;41277;-68
2022/06/25 09:53:53;;;;;;;3.40;1.40;;;;;35.76;97197.00;;;;110569;1254;41169;-67
2022/06/25 09:56:23;;;;;;;4.70;1.40;;;;;36.04;97190.40;;;;110711;1254;41711;-66
2022/06/25 09:58:53;;;;;;;3.50;1.70;;;;;36.84;97194.60;;;;110350;1254;42573;-67
2022/06/25 10:01:24;;;;;;;2.40;1.40;;;;;37.32;97187.20;;;;110315;1254;41191;-67
2022/06/25 10:03:55;;;;;;;3.30;1.60;;;;;37.64;97185.40;;;;110534;1254;41373;-68
2022/06/25 10:06:25;;;;;;;7.70;1.90;;;;;38.06;97182.40;;;;110616;1254;41149;-67
2022/06/25 10:08:58;;;;;;;;;;;;;38.30;97178.20;;;;110568;1254;41142;-68
2022/06/25 10:11:29;;;;;;;2.80;1.40;;;;;38.62;97180.80;;;;110633;1251;41140;-68
2022/06/25 10:13:58;;;;;;;3.00;1.40;;;;;38.90;97177.40;;;;110660;1254;41154;-69
2022/06/25 10:16:29;;;;;;;2.80;1.30;;;;;38.52;97180.80;;;;110615;1254;41173;-68
2022/06/25 10:19:00;;;;;;;1.90;1.30;;;;;37.54;97181.20;;;;110668;1254;41482;-68
2022/06/25 10:21:29;;;;;;;2.80;1.40;;;;;36.28;97186.20;;;;110534;1255;41155;-69
2022/06/25 10:24:02;;;;;;;7.60;1.40;;;;;35.90;97179.20;;;;110587;1252;41544;-67
2022/06/25 10:26:32;;;;;;;2.00;1.40;;;;;36.14;97175.40;;;;110615;1254;41160;-68
2022/06/25 10:29:03;;;;;;;1.70;1.30;;;;;36.42;97177.00;;;;110664;1254;41898;-68
2022/06/25 10:31:32;;;;;;;2.80;1.40;;;;;36.30;97172.40;;;;110692;1254;41421;-68
2022/06/25 10:34:03;;;;;;;4.80;1.40;;;;;36.18;97173.80;;;;110606;1253;41177;-67
2022/06/25 10:36:52;;;;;;;3.20;1.60;;;;;36.50;97169.40;;;;110675;1253;42453;-68
2022/06/25 10:39:27;;;;;;;1.90;1.30;;;;;35.80;97171.60;;;;110543;1253;41272;-68
2022/06/25 10:45:06;;;;;;;2.70;1.40;;;;;33.18;97174.60;;;;110549;1254;40912;-67
2022/06/25 10:47:46;;;;;;;4.60;1.60;;;;;32.84;97177.00;;;;110472;1254;41151;-69
2022/06/25 10:50:21;;;;;;;3.30;1.50;;;;;32.94;97175.00;;;;110599;1254;41221;-68
2022/06/25 10:53:03;;;;;;;2.50;1.50;;;;;32.62;97177.20;;;;110585;1255;41789;-68
2022/06/25 10:55:37;;;;;;;3.80;1.40;;;;;33.76;97180.00;;;;110654;1254;41153;-68
2022/06/25 10:58:13;;;;;;;3.40;1.40;;;;;34.10;97180.60;;;;110592;1254;41266;-68
2022/06/25 11:00:52;;;;;;;3.60;1.60;;;;;34.04;97174.80;;;;110759;1253;41284;-68
2022/06/25 11:03:27;;;;;;;;;;;;;33.90;97172.80;;;;110543;1253;41706;-66
2022/06/25 11:06:16;;;;;;;2.20;1.40;;;;;33.50;97175.40;;;;110578;1254;41730;-66
2022/06/25 11:08:45;;;;;;;2.80;1.50;;;;;33.10;97175.00;;;;110688;1253;42148;-68
2022/06/25 11:11:28;;;;;;;3.50;1.40;;;;;32.80;97175.80;;;;110433;1254;41165;-68
2022/06/25 11:13:59;;;;;;;2.60;1.50;;;;;32.82;97168.80;;;;110713;1254;41166;-67
2022/06/25 11:16:29;;;;;;;2.90;1.40;;;;;34.12;97166.20;;;;110619;1254;41167;-67
2022/06/25 11:19:00;;;;;;;2.00;1.30;;;;;35.90;97159.20;;;;110686;1253;41124;-67
2022/06/25 11:21:28;;;;;;;2.40;1.30;;;;;37.48;97151.20;;;;110651;1253;41829;-68
2022/06/25 11:24:17;;;;;;;2.60;1.50;;;;;38.50;97152.80;;;;110757;1251;41168;-68
2022/06/25 11:30:00;;;;;;;2.40;1.30;;;;;37.48;97155.80;;;;110670;1254;41264;-68
2022/06/25 11:32:30;;;;;;;2.80;1.50;;;;;36.48;97155.20;;;;110578;1253;42137;-68
2022/06/25 11:35:01;;;;;;;3.20;1.60;;;;;35.38;97146.20;;;;110698;1254;41602;-69
2022/06/25 11:37:30;;;;;;;4.30;1.50;;;;;36.30;97143.00;;;;110762;1253;42514;-68
2022/06/25 11:40:00;;;;;;;2.30;1.40;;;;;37.20;97137.60;;;;110733;1254;41324;-68
2022/06/25 11:42:32;;;;;;;2.90;1.60;;;;;38.12;97136.80;;;;110766;1254;41317;-68
2022/06/25 11:45:01;;;;;;;4.80;1.90;;;;;38.40;97141.20;;;;110583;1254;41168;-67
2022/06/25 11:47:30;;;;;;;5.80;2.00;;;;;37.88;97139.20;;;;110765;1252;42089;-67
2022/06/25 11:50:10;;;;;;;3.90;1.60;;;;;36.84;97138.80;;;;110860;1253;41154;-67
2022/06/25 11:52:43;;;;;;;3.60;1.60;;;;;35.58;97137.40;;;;110795;1252;41271;-69
2022/06/25 11:55:12;;;;;;;4.10;1.60;;;;;36.76;97133.40;;;;110350;1255;41750;-67
2022/06/25 11:57:43;;;;;;;2.30;1.40;;;;;36.74;97128.80;;;;110675;1254;41142;-68
2022/06/25 12:00:13;;;;;;;4.20;1.80;;;;;36.98;97131.00;;;;110680;1254;41879;-67
2022/06/25 12:02:43;;;;;;;3.80;1.60;;;;;37.42;97122.40;;;;110518;1254;41242;-68
2022/06/25 12:05:12;;;;;;;3.30;1.60;;;;;37.14;97120.00;;;;110495;1254;41694;-68
2022/06/25 12:07:44;;;;;;;2.60;1.50;;;;;37.08;97121.40;;;;110476;1254;41265;-67
2022/06/25 12:10:13;;;;;;;3.00;1.50;;;;;36.22;97122.20;;;;110686;1254;41158;-68
2022/06/25 12:12:43;;;;;;;6.80;1.60;;;;;35.90;97120.60;;;;110785;1253;41258;-67
2022/06/25 12:15:12;;;;;;;7.40;1.70;;;;;34.90;97120.20;;;;110573;1253;41661;-67
2022/06/25 12:17:47;;;;;;;3.10;1.50;;;;;34.46;97115.60;;;;110645;1253;41153;-69
2022/06/25 12:20:17;;;;;;;7.90;1.60;;;;;34.20;97109.60;;;;110554;1254;41131;-67
2022/06/25 12:22:52;;;;;;;4.40;1.70;;;;;33.94;97113.00;;;;110652;1253;41271;-68
2022/06/25 12:25:27;;;;;;;3.50;1.60;;;;;33.76;97112.60;;;;110725;1253;41895;-68
2022/06/25 12:27:56;;;;;;;5.10;1.90;;;;;33.30;97109.20;;;;110712;1253;41383;-67
2022/06/25 12:30:28;;;;;;;5.30;2.00;;;;;33.00;97115.60;;;;110489;1254;41396;-69
2022/06/25 12:33:04;;;;;;;4.50;1.70;;;;;32.68;97115.60;;;;110633;1253;41164;-67
2022/06/25 12:35:36;;;;;;;3.70;1.70;;;;;32.54;97119.60;;;;110639;1253;41268;-68
2022/06/25 12:38:14;;;;;;;5.80;1.70;;;;;32.60;97117.20;;;;110513;1254;42383;-68
2022/06/25 12:40:45;;;;;;;3.30;1.70;;;;;32.30;97119.60;;;;110670;1253;42338;-69
2022/06/25 12:43:15;;;;;;;5.40;2.00;;;;;32.28;97114.80;;;;110678;1253;41141;-68
2022/06/25 12:45:46;;;;;;;4.50;1.80;;;;;32.30;97117.60;;;;110740;1253;41914;-68
2022/06/25 12:48:27;;;;;;;3.50;1.70;;;;;32.30;97122.80;;;;110743;1253;41361;-68
2022/06/25 12:51:08;;;;;;;7.20;2.00;;;;;32.34;97123.60;;;;110674;1253;41296;-68
2022/06/25 12:53:38;;;;;;;4.30;1.70;;;;;32.40;97118.40;;;;110730;1253;41240;-69